sensor_id;sensor_type;location;lat;lon;timestamp;P1;durP1;ratioP1;P2;durP2;ratioP2
9436;SDS011;4757;59.334;18.034;2023-04-25T00:00:34;3.17;;;2.67;;
9436;SDS011;4757;59.334;18.034;2023-04-25T00:03:01;4.87;;;3.10;;
9436;SDS011;4757;59.334;18.034;2023-04-25T00:05:29;2.90;;;2.70;;
9436;SDS011;4757;59.334;18.034;2023-04-25T00:07:57;7.00;;;3.47;;
9436;SDS011;4757;59.334;18.034;2023-04-25T00:10:24;2.97;;;2.60;;
9436;SDS011;4757;59.334;18.034;2023-04-25T00:12:51;5.00;;;2.50;;
9436;SDS011;4757;59.334;18.034;2023-04-25T00:15:18;5.30;;;2.90;;
9436;SDS011;4757;59.334;18.034;2023-04-25T00:17:46;2.97;;;2.60;;
9436;SDS011;4757;59.334;18.034;2023-04-25T00:20:13;2.83;;;2.60;;
9436;SDS011;4757;59.334;18.034;2023-04-25T00:22:40;4.27;;;3.10;;
9436;SDS011;4757;59.334;18.034;2023-04-25T00:25:07;4.17;;;3.03;;
9436;SDS011;4757;59.334;18.034;2023-04-25T00:27:35;4.07;;;3.03;;
9436;SDS011;4757;59.334;18.034;2023-04-25T00:30:02;3.10;;;2.83;;
9436;SDS011;4757;59.334;18.034;2023-04-25T00:32:29;2.23;;;2.03;;
9436;SDS011;4757;59.334;18.034;2023-04-25T00:34:56;3.07;;;2.17;;
9436;SDS011;4757;59.334;18.034;2023-04-25T00:37:24;4.13;;;2.07;;
9436;SDS011;4757;59.334;18.034;2023-04-25T00:39:51;3.20;;;2.67;;
9436;SDS011;4757;59.334;18.034;2023-04-25T00:42:19;3.10;;;2.70;;
9436;SDS011;4757;59.334;18.034;2023-04-25T00:44:47;3.90;;;2.50;;
9436;SDS011;4757;59.334;18.034;2023-04-25T00:47:15;3.63;;;3.33;;
9436;SDS011;4757;59.334;18.034;2023-04-25T00:49:42;2.33;;;2.13;;
9436;SDS011;4757;59.334;18.034;2023-04-25T00:52:09;4.47;;;2.30;;
9436;SDS011;4757;59.334;18.034;2023-04-25T00:54:37;3.73;;;2.53;;
9436;SDS011;4757;59.334;18.034;2023-04-25T00:57:04;3.13;;;2.50;;
9436;SDS011;4757;59.334;18.034;2023-04-25T01:00:23;5.50;;;2.80;;
9436;SDS011;4757;59.334;18.034;2023-04-25T01:02:59;3.53;;;2.30;;
9436;SDS011;4757;59.334;18.034;2023-04-25T01:05:43;2.37;;;2.17;;
9436;SDS011;4757;59.334;18.034;2023-04-25T01:09:11;3.40;;;1.93;;
9436;SDS011;4757;59.334;18.034;2023-04-25T01:12:41;3.00;;;2.43;;
9436;SDS011;4757;59.334;18.034;2023-04-25T01:23:26;4.10;;;2.10;;
9436;SDS011;4757;59.334;18.034;2023-04-25T01:26:37;2.57;;;1.63;;
9436;SDS011;4757;59.334;18.034;2023-04-25T01:29:07;2.20;;;2.00;;
9436;SDS011;4757;59.334;18.034;2023-04-25T01:31:34;1.67;;;1.57;;
9436;SDS011;4757;59.334;18.034;2023-04-25T01:34:02;2.30;;;2.10;;
9436;SDS011;4757;59.334;18.034;2023-04-25T01:36:29;3.23;;;2.90;;
9436;SDS011;4757;59.334;18.034;2023-04-25T01:38:57;2.20;;;1.87;;
9436;SDS011;4757;59.334;18.034;2023-04-25T01:41:27;2.53;;;1.97;;
9436;SDS011;4757;59.334;18.034;2023-04-25T01:43:54;3.23;;;1.90;;
9436;SDS011;4757;59.334;18.034;2023-04-25T01:46:22;2.17;;;2.00;;
9436;SDS011;4757;59.334;18.034;2023-04-25T01:48:49;3.57;;;2.27;;
9436;SDS011;4757;59.334;18.034;2023-04-25T01:51:16;3.67;;;3.23;;
9436;SDS011;4757;59.334;18.034;2023-04-25T01:53:43;3.47;;;3.10;;
9436;SDS011;4757;59.334;18.034;2023-04-25T01:56:11;4.87;;;2.80;;
9436;SDS011;4757;59.334;18.034;2023-04-25T01:58:38;3.47;;;2.63;;
9436;SDS011;4757;59.334;18.034;2023-04-25T02:01:05;3.10;;;1.67;;
9436;SDS011;4757;59.334;18.034;2023-04-25T02:03:32;2.43;;;2.00;;
9436;SDS011;4757;59.334;18.034;2023-04-25T02:06:00;2.97;;;1.90;;
9436;SDS011;4757;59.334;18.034;2023-04-25T02:08:27;1.53;;;1.43;;
9436;SDS011;4757;59.334;18.034;2023-04-25T02:10:54;2.40;;;1.30;;
9436;SDS011;4757;59.334;18.034;2023-04-25T02:13:21;2.13;;;1.53;;
9436;SDS011;4757;59.334;18.034;2023-04-25T02:15:48;5.43;;;2.20;;
9436;SDS011;4757;59.334;18.034;2023-04-25T02:18:15;2.50;;;1.80;;
9436;SDS011;4757;59.334;18.034;2023-04-25T02:20:42;2.60;;;2.40;;
9436;SDS011;4757;59.334;18.034;2023-04-25T02:23:10;1.30;;;1.20;;
9436;SDS011;4757;59.334;18.034;2023-04-25T02:25:37;2.40;;;1.43;;
9436;SDS011;4757;59.334;18.034;2023-04-25T02:28:04;2.00;;;1.00;;
9436;SDS011;4757;59.334;18.034;2023-04-25T02:30:31;1.47;;;1.37;;
9436;SDS011;4757;59.334;18.034;2023-04-25T02:32:58;1.33;;;1.23;;
9436;SDS011;4757;59.334;18.034;2023-04-25T02:35:26;1.73;;;1.63;;
9436;SDS011;4757;59.334;18.034;2023-04-25T02:37:53;0.83;;;0.83;;
9436;SDS011;4757;59.334;18.034;2023-04-25T02:40:20;1.20;;;1.10;;
9436;SDS011;4757;59.334;18.034;2023-04-25T02:42:47;1.20;;;1.10;;
9436;SDS011;4757;59.334;18.034;2023-04-25T02:45:14;1.87;;;1.30;;
9436;SDS011;4757;59.334;18.034;2023-04-25T02:47:41;1.17;;;1.07;;
9436;SDS011;4757;59.334;18.034;2023-04-25T02:50:08;1.50;;;1.40;;
9436;SDS011;4757;59.334;18.034;2023-04-25T02:52:35;1.50;;;1.40;;
9436;SDS011;4757;59.334;18.034;2023-04-25T02:55:02;0.80;;;0.80;;
9436;SDS011;4757;59.334;18.034;2023-04-25T02:57:29;1.40;;;1.30;;
9436;SDS011;4757;59.334;18.034;2023-04-25T02:59:56;2.70;;;1.27;;
9436;SDS011;4757;59.334;18.034;2023-04-25T03:02:24;1.20;;;1.10;;
9436;SDS011;4757;59.334;18.034;2023-04-25T03:05:08;0.73;;;0.70;;
9436;SDS011;4757;59.334;18.034;2023-04-25T03:07:35;2.00;;;0.70;;
9436;SDS011;4757;59.334;18.034;2023-04-25T03:10:02;1.00;;;0.90;;
9436;SDS011;4757;59.334;18.034;2023-04-25T03:12:30;1.73;;;1.13;;
9436;SDS011;4757;59.334;18.034;2023-04-25T03:14:57;1.10;;;0.87;;
9436;SDS011;4757;59.334;18.034;2023-04-25T03:17:24;0.70;;;0.70;;
9436;SDS011;4757;59.334;18.034;2023-04-25T03:19:51;0.70;;;0.70;;
9436;SDS011;4757;59.334;18.034;2023-04-25T03:22:18;0.67;;;0.67;;
9436;SDS011;4757;59.334;18.034;2023-04-25T03:24:58;1.10;;;1.00;;
9436;SDS011;4757;59.334;18.034;2023-04-25T03:28:29;1.20;;;1.10;;
9436;SDS011;4757;59.334;18.034;2023-04-25T03:36:04;1.40;;;1.20;;
9436;SDS011;4757;59.334;18.034;2023-04-25T03:39:27;1.30;;;0.93;;
9436;SDS011;4757;59.334;18.034;2023-04-25T03:42:11;0.83;;;0.83;;
9436;SDS011;4757;59.334;18.034;2023-04-25T03:45:21;1.03;;;0.93;;
9436;SDS011;4757;59.334;18.034;2023-04-25T03:56:06;1.60;;;1.43;;
9436;SDS011;4757;59.334;18.034;2023-04-25T03:59:22;1.27;;;1.10;;
9436;SDS011;4757;59.334;18.034;2023-04-25T04:01:50;3.57;;;0.90;;
9436;SDS011;4757;59.334;18.034;2023-04-25T04:04:31;1.67;;;1.47;;
9436;SDS011;4757;59.334;18.034;2023-04-25T04:06:58;1.20;;;1.10;;
9436;SDS011;4757;59.334;18.034;2023-04-25T04:09:26;1.63;;;1.53;;
9436;SDS011;4757;59.334;18.034;2023-04-25T04:11:53;1.27;;;1.13;;
9436;SDS011;4757;59.334;18.034;2023-04-25T04:14:20;1.00;;;0.97;;
9436;SDS011;4757;59.334;18.034;2023-04-25T04:16:47;1.73;;;1.33;;
9436;SDS011;4757;59.334;18.034;2023-04-25T04:19:14;2.70;;;1.40;;
9436;SDS011;4757;59.334;18.034;2023-04-25T04:21:42;1.33;;;1.13;;
9436;SDS011;4757;59.334;18.034;2023-04-25T04:24:09;1.20;;;1.20;;
9436;SDS011;4757;59.334;18.034;2023-04-25T04:26:36;2.67;;;1.60;;
9436;SDS011;4757;59.334;18.034;2023-04-25T04:29:05;3.13;;;1.73;;
9436;SDS011;4757;59.334;18.034;2023-04-25T04:31:33;2.93;;;1.93;;
9436;SDS011;4757;59.334;18.034;2023-04-25T04:34:09;1.50;;;1.13;;
9436;SDS011;4757;59.334;18.034;2023-04-25T04:45:10;2.90;;;1.73;;
9436;SDS011;4757;59.334;18.034;2023-04-25T05:09:39;5.23;;;2.80;;
9436;SDS011;4757;59.334;18.034;2023-04-25T05:22:55;9.27;;;4.63;;
9436;SDS011;4757;59.334;18.034;2023-04-25T05:29:03;3.10;;;2.50;;
9436;SDS011;4757;59.334;18.034;2023-04-25T05:31:31;2.27;;;2.03;;
9436;SDS011;4757;59.334;18.034;2023-04-25T05:33:59;4.63;;;2.77;;
9436;SDS011;4757;59.334;18.034;2023-04-25T05:36:26;3.30;;;2.87;;
9436;SDS011;4757;59.334;18.034;2023-04-25T05:38:53;6.97;;;3.37;;
9436;SDS011;4757;59.334;18.034;2023-04-25T05:41:20;3.43;;;2.87;;
9436;SDS011;4757;59.334;18.034;2023-04-25T05:43:48;3.93;;;3.43;;
9436;SDS011;4757;59.334;18.034;2023-04-25T05:59:03;4.83;;;2.70;;
9436;SDS011;4757;59.334;18.034;2023-04-25T06:13:41;3.80;;;2.77;;
9436;SDS011;4757;59.334;18.034;2023-04-25T06:16:11;4.40;;;3.10;;
9436;SDS011;4757;59.334;18.034;2023-04-25T06:18:38;4.27;;;2.73;;
9436;SDS011;4757;59.334;18.034;2023-04-25T06:21:05;4.80;;;3.63;;
9436;SDS011;4757;59.334;18.034;2023-04-25T06:23:33;4.33;;;3.00;;
9436;SDS011;4757;59.334;18.034;2023-04-25T06:26:00;2.47;;;2.17;;
9436;SDS011;4757;59.334;18.034;2023-04-25T06:28:30;2.40;;;2.20;;
9436;SDS011;4757;59.334;18.034;2023-04-25T06:30:57;4.17;;;2.40;;
9436;SDS011;4757;59.334;18.034;2023-04-25T06:33:24;2.07;;;1.80;;
9436;SDS011;4757;59.334;18.034;2023-04-25T06:35:52;2.57;;;2.20;;
9436;SDS011;4757;59.334;18.034;2023-04-25T06:38:19;3.33;;;2.10;;
9436;SDS011;4757;59.334;18.034;2023-04-25T06:40:46;8.57;;;4.57;;
9436;SDS011;4757;59.334;18.034;2023-04-25T06:43:21;4.00;;;3.10;;
9436;SDS011;4757;59.334;18.034;2023-04-25T07:05:22;3.97;;;2.90;;
9436;SDS011;4757;59.334;18.034;2023-04-25T07:30:48;2.93;;;2.63;;
9436;SDS011;4757;59.334;18.034;2023-04-25T07:45:15;2.80;;;2.50;;
9436;SDS011;4757;59.334;18.034;2023-04-25T07:47:41;3.17;;;2.50;;
9436;SDS011;4757;59.334;18.034;2023-04-25T07:50:08;5.33;;;2.47;;
9436;SDS011;4757;59.334;18.034;2023-04-25T07:52:37;3.47;;;2.60;;
9436;SDS011;4757;59.334;18.034;2023-04-25T07:55:04;4.60;;;3.13;;
9436;SDS011;4757;59.334;18.034;2023-04-25T07:57:31;3.27;;;2.97;;
9436;SDS011;4757;59.334;18.034;2023-04-25T07:59:58;3.33;;;3.00;;
9436;SDS011;4757;59.334;18.034;2023-04-25T08:02:26;7.37;;;3.73;;
9436;SDS011;4757;59.334;18.034;2023-04-25T08:04:54;5.20;;;3.20;;
9436;SDS011;4757;59.334;18.034;2023-04-25T08:07:22;5.57;;;3.30;;
9436;SDS011;4757;59.334;18.034;2023-04-25T08:09:53;5.10;;;3.03;;
9436;SDS011;4757;59.334;18.034;2023-04-25T08:12:21;97.77;;;16.60;;
9436;SDS011;4757;59.334;18.034;2023-04-25T08:14:48;18.17;;;4.77;;
9436;SDS011;4757;59.334;18.034;2023-04-25T08:17:15;10.07;;;4.57;;
9436;SDS011;4757;59.334;18.034;2023-04-25T08:19:43;12.80;;;4.27;;
9436;SDS011;4757;59.334;18.034;2023-04-25T08:22:10;5.47;;;3.77;;
9436;SDS011;4757;59.334;18.034;2023-04-25T08:24:39;5.27;;;4.00;;
9436;SDS011;4757;59.334;18.034;2023-04-25T08:27:06;16.10;;;4.07;;
9436;SDS011;4757;59.334;18.034;2023-04-25T08:29:34;5.00;;;3.43;;
9436;SDS011;4757;59.334;18.034;2023-04-25T08:32:01;4.43;;;3.80;;
9436;SDS011;4757;59.334;18.034;2023-04-25T08:34:28;5.47;;;4.37;;
9436;SDS011;4757;59.334;18.034;2023-04-25T08:36:55;7.63;;;4.83;;
9436;SDS011;4757;59.334;18.034;2023-04-25T08:39:24;12.60;;;7.13;;
9436;SDS011;4757;59.334;18.034;2023-04-25T08:41:52;11.00;;;8.83;;
9436;SDS011;4757;59.334;18.034;2023-04-25T08:44:19;12.53;;;8.80;;
9436;SDS011;4757;59.334;18.034;2023-04-25T08:46:48;30.73;;;12.80;;
9436;SDS011;4757;59.334;18.034;2023-04-25T08:49:22;41.23;;;13.63;;
9436;SDS011;4757;59.334;18.034;2023-04-25T08:51:49;32.07;;;11.10;;
9436;SDS011;4757;59.334;18.034;2023-04-25T08:54:18;14.93;;;9.97;;
9436;SDS011;4757;59.334;18.034;2023-04-25T08:57:12;10.30;;;9.20;;
9436;SDS011;4757;59.334;18.034;2023-04-25T08:59:42;13.30;;;11.90;;
9436;SDS011;4757;59.334;18.034;2023-04-25T09:02:12;12.10;;;8.67;;
9436;SDS011;4757;59.334;18.034;2023-04-25T09:04:44;13.33;;;8.93;;
9436;SDS011;4757;59.334;18.034;2023-04-25T09:07:11;9.47;;;7.43;;
9436;SDS011;4757;59.334;18.034;2023-04-25T09:09:42;12.83;;;8.00;;
9436;SDS011;4757;59.334;18.034;2023-04-25T09:12:09;9.33;;;8.13;;
9436;SDS011;4757;59.334;18.034;2023-04-25T09:14:36;13.90;;;8.20;;
9436;SDS011;4757;59.334;18.034;2023-04-25T09:17:06;10.60;;;8.60;;
9436;SDS011;4757;59.334;18.034;2023-04-25T09:19:35;11.10;;;7.57;;
9436;SDS011;4757;59.334;18.034;2023-04-25T09:22:07;9.43;;;7.47;;
9436;SDS011;4757;59.334;18.034;2023-04-25T09:24:36;10.20;;;7.47;;
9436;SDS011;4757;59.334;18.034;2023-04-25T09:27:06;9.53;;;7.87;;
9436;SDS011;4757;59.334;18.034;2023-04-25T09:29:35;7.87;;;6.67;;
9436;SDS011;4757;59.334;18.034;2023-04-25T09:32:10;11.80;;;9.00;;
9436;SDS011;4757;59.334;18.034;2023-04-25T09:34:55;9.10;;;8.13;;
9436;SDS011;4757;59.334;18.034;2023-04-25T09:37:24;10.13;;;8.47;;
9436;SDS011;4757;59.334;18.034;2023-04-25T09:39:59;13.10;;;8.83;;
9436;SDS011;4757;59.334;18.034;2023-04-25T09:42:32;9.70;;;7.73;;
9436;SDS011;4757;59.334;18.034;2023-04-25T09:45:03;9.47;;;7.27;;
9436;SDS011;4757;59.334;18.034;2023-04-25T09:47:31;6.93;;;6.23;;
9436;SDS011;4757;59.334;18.034;2023-04-25T09:50:04;9.87;;;6.80;;
9436;SDS011;4757;59.334;18.034;2023-04-25T09:53:02;6.93;;;6.23;;
9436;SDS011;4757;59.334;18.034;2023-04-25T09:55:34;7.90;;;6.07;;
9436;SDS011;4757;59.334;18.034;2023-04-25T09:58:05;6.20;;;5.60;;
9436;SDS011;4757;59.334;18.034;2023-04-25T10:00:34;7.50;;;6.10;;
9436;SDS011;4757;59.334;18.034;2023-04-25T10:03:02;7.83;;;6.80;;
9436;SDS011;4757;59.334;18.034;2023-04-25T10:05:32;5.13;;;4.63;;
9436;SDS011;4757;59.334;18.034;2023-04-25T10:08:02;6.80;;;5.80;;
9436;SDS011;4757;59.334;18.034;2023-04-25T10:10:32;7.77;;;6.10;;
9436;SDS011;4757;59.334;18.034;2023-04-25T10:13:03;7.60;;;5.53;;
9436;SDS011;4757;59.334;18.034;2023-04-25T10:15:35;7.77;;;6.07;;
9436;SDS011;4757;59.334;18.034;2023-04-25T10:18:06;10.00;;;5.87;;
9436;SDS011;4757;59.334;18.034;2023-04-25T10:20:33;5.27;;;4.63;;
9436;SDS011;4757;59.334;18.034;2023-04-25T10:23:06;7.23;;;5.87;;
9436;SDS011;4757;59.334;18.034;2023-04-25T10:25:39;11.70;;;7.10;;
9436;SDS011;4757;59.334;18.034;2023-04-25T10:28:07;10.10;;;6.63;;
9436;SDS011;4757;59.334;18.034;2023-04-25T10:30:34;7.90;;;7.10;;
9436;SDS011;4757;59.334;18.034;2023-04-25T10:33:01;11.00;;;6.50;;
9436;SDS011;4757;59.334;18.034;2023-04-25T10:35:47;8.27;;;6.67;;
9436;SDS011;4757;59.334;18.034;2023-04-25T10:38:15;11.93;;;6.60;;
9436;SDS011;4757;59.334;18.034;2023-04-25T10:40:42;11.33;;;7.77;;
9436;SDS011;4757;59.334;18.034;2023-04-25T10:46:00;9.73;;;6.70;;
9436;SDS011;4757;59.334;18.034;2023-04-25T10:48:28;9.80;;;7.33;;
9436;SDS011;4757;59.334;18.034;2023-04-25T10:51:15;14.10;;;7.47;;
9436;SDS011;4757;59.334;18.034;2023-04-25T10:53:45;9.20;;;6.90;;
9436;SDS011;4757;59.334;18.034;2023-04-25T10:56:19;10.37;;;7.67;;
9436;SDS011;4757;59.334;18.034;2023-04-25T10:58:50;8.67;;;5.97;;
9436;SDS011;4757;59.334;18.034;2023-04-25T11:01:24;13.30;;;7.77;;
9436;SDS011;4757;59.334;18.034;2023-04-25T11:03:57;12.37;;;6.87;;
9436;SDS011;4757;59.334;18.034;2023-04-25T11:08:59;8.33;;;6.90;;
9436;SDS011;4757;59.334;18.034;2023-04-25T11:11:28;8.50;;;6.47;;
9436;SDS011;4757;59.334;18.034;2023-04-25T11:13:56;10.93;;;5.93;;
9436;SDS011;4757;59.334;18.034;2023-04-25T11:16:24;10.00;;;5.73;;
9436;SDS011;4757;59.334;18.034;2023-04-25T11:18:56;17.40;;;7.17;;
9436;SDS011;4757;59.334;18.034;2023-04-25T11:21:26;8.63;;;6.07;;
9436;SDS011;4757;59.334;18.034;2023-04-25T11:23:55;6.90;;;6.10;;
9436;SDS011;4757;59.334;18.034;2023-04-25T11:26:24;15.73;;;6.23;;
9436;SDS011;4757;59.334;18.034;2023-04-25T11:28:55;23.03;;;7.60;;
9436;SDS011;4757;59.334;18.034;2023-04-25T11:31:24;13.53;;;6.00;;
9436;SDS011;4757;59.334;18.034;2023-04-25T11:33:53;10.87;;;5.83;;
9436;SDS011;4757;59.334;18.034;2023-04-25T11:36:22;9.00;;;5.70;;
9436;SDS011;4757;59.334;18.034;2023-04-25T11:38:50;28.17;;;8.77;;
9436;SDS011;4757;59.334;18.034;2023-04-25T11:41:18;12.00;;;6.80;;
9436;SDS011;4757;59.334;18.034;2023-04-25T11:43:48;11.17;;;6.60;;
9436;SDS011;4757;59.334;18.034;2023-04-25T11:46:21;8.47;;;6.63;;
9436;SDS011;4757;59.334;18.034;2023-04-25T11:48:51;9.10;;;6.80;;
9436;SDS011;4757;59.334;18.034;2023-04-25T11:51:24;15.43;;;7.50;;
9436;SDS011;4757;59.334;18.034;2023-04-25T11:53:51;14.87;;;8.27;;
9436;SDS011;4757;59.334;18.034;2023-04-25T11:56:18;17.10;;;10.47;;
9436;SDS011;4757;59.334;18.034;2023-04-25T11:59:00;13.43;;;7.50;;
9436;SDS011;4757;59.334;18.034;2023-04-25T12:01:35;6.77;;;5.53;;
9436;SDS011;4757;59.334;18.034;2023-04-25T12:04:16;6.50;;;5.87;;
9436;SDS011;4757;59.334;18.034;2023-04-25T12:06:45;35.00;;;6.97;;
9436;SDS011;4757;59.334;18.034;2023-04-25T12:09:17;18.33;;;7.30;;
9436;SDS011;4757;59.334;18.034;2023-04-25T12:11:54;19.80;;;6.63;;
9436;SDS011;4757;59.334;18.034;2023-04-25T12:14:26;19.13;;;7.00;;
9436;SDS011;4757;59.334;18.034;2023-04-25T12:16:56;15.03;;;5.80;;
9436;SDS011;4757;59.334;18.034;2023-04-25T12:19:25;14.40;;;6.37;;
9436;SDS011;4757;59.334;18.034;2023-04-25T12:21:53;6.30;;;4.97;;
9436;SDS011;4757;59.334;18.034;2023-04-25T12:24:25;8.37;;;5.03;;
9436;SDS011;4757;59.334;18.034;2023-04-25T12:29:30;23.40;;;6.20;;
9436;SDS011;4757;59.334;18.034;2023-04-25T12:32:14;12.83;;;5.73;;
9436;SDS011;4757;59.334;18.034;2023-04-25T12:34:48;7.27;;;5.67;;
9436;SDS011;4757;59.334;18.034;2023-04-25T12:37:16;11.10;;;5.53;;
9436;SDS011;4757;59.334;18.034;2023-04-25T12:39:46;17.93;;;7.30;;
9436;SDS011;4757;59.334;18.034;2023-04-25T12:42:30;18.37;;;6.43;;
9436;SDS011;4757;59.334;18.034;2023-04-25T12:45:06;18.20;;;5.73;;
9436;SDS011;4757;59.334;18.034;2023-04-25T12:47:34;13.30;;;5.73;;
9436;SDS011;4757;59.334;18.034;2023-04-25T12:50:28;20.00;;;10.00;;
9436;SDS011;4757;59.334;18.034;2023-04-25T12:52:55;13.23;;;7.30;;
9436;SDS011;4757;59.334;18.034;2023-04-25T12:55:28;9.73;;;5.80;;
9436;SDS011;4757;59.334;18.034;2023-04-25T12:57:55;18.07;;;6.63;;
9436;SDS011;4757;59.334;18.034;2023-04-25T13:00:36;18.50;;;5.93;;
9436;SDS011;4757;59.334;18.034;2023-04-25T13:04:00;9.80;;;4.60;;
9436;SDS011;4757;59.334;18.034;2023-04-25T13:06:53;30.23;;;5.60;;
9436;SDS011;4757;59.334;18.034;2023-04-25T13:09:20;6.40;;;4.70;;
9436;SDS011;4757;59.334;18.034;2023-04-25T13:14:43;13.20;;;4.67;;
9436;SDS011;4757;59.334;18.034;2023-04-25T13:17:17;71.87;;;9.60;;
9436;SDS011;4757;59.334;18.034;2023-04-25T13:19:44;7.07;;;4.17;;
9436;SDS011;4757;59.334;18.034;2023-04-25T13:22:12;9.80;;;5.40;;
9436;SDS011;4757;59.334;18.034;2023-04-25T13:24:41;11.43;;;4.57;;
9436;SDS011;4757;59.334;18.034;2023-04-25T13:27:12;5.63;;;3.90;;
9436;SDS011;4757;59.334;18.034;2023-04-25T13:29:39;5.57;;;4.00;;
9436;SDS011;4757;59.334;18.034;2023-04-25T13:32:07;4.70;;;3.67;;
9436;SDS011;4757;59.334;18.034;2023-04-25T13:34:36;6.80;;;3.87;;
9436;SDS011;4757;59.334;18.034;2023-04-25T13:37:05;12.50;;;5.27;;
9436;SDS011;4757;59.334;18.034;2023-04-25T13:39:33;6.90;;;3.50;;
9436;SDS011;4757;59.334;18.034;2023-04-25T13:42:00;6.93;;;3.90;;
9436;SDS011;4757;59.334;18.034;2023-04-25T13:44:28;7.93;;;4.13;;
9436;SDS011;4757;59.334;18.034;2023-04-25T13:46:56;4.90;;;4.40;;
9436;SDS011;4757;59.334;18.034;2023-04-25T13:49:28;9.90;;;4.57;;
9436;SDS011;4757;59.334;18.034;2023-04-25T13:51:55;9.57;;;4.23;;
9436;SDS011;4757;59.334;18.034;2023-04-25T13:54:22;6.90;;;4.40;;
9436;SDS011;4757;59.334;18.034;2023-04-25T13:56:49;8.57;;;4.90;;
9436;SDS011;4757;59.334;18.034;2023-04-25T13:59:16;7.07;;;4.40;;
9436;SDS011;4757;59.334;18.034;2023-04-25T14:01:43;19.70;;;5.17;;
9436;SDS011;4757;59.334;18.034;2023-04-25T14:04:11;9.20;;;4.53;;
9436;SDS011;4757;59.334;18.034;2023-04-25T14:06:38;10.23;;;4.77;;
9436;SDS011;4757;59.334;18.034;2023-04-25T14:09:05;26.23;;;12.27;;
9436;SDS011;4757;59.334;18.034;2023-04-25T14:11:33;7.90;;;5.20;;
9436;SDS011;4757;59.334;18.034;2023-04-25T14:14:00;23.13;;;6.30;;
9436;SDS011;4757;59.334;18.034;2023-04-25T14:16:28;10.23;;;5.53;;
9436;SDS011;4757;59.334;18.034;2023-04-25T14:18:57;16.23;;;6.23;;
9436;SDS011;4757;59.334;18.034;2023-04-25T14:21:24;14.03;;;6.97;;
9436;SDS011;4757;59.334;18.034;2023-04-25T14:23:51;13.67;;;5.97;;
9436;SDS011;4757;59.334;18.034;2023-04-25T14:26:20;5.17;;;4.67;;
9436;SDS011;4757;59.334;18.034;2023-04-25T14:28:47;11.77;;;5.93;;
9436;SDS011;4757;59.334;18.034;2023-04-25T14:31:14;15.53;;;5.27;;
9436;SDS011;4757;59.334;18.034;2023-04-25T14:33:41;11.23;;;4.60;;
9436;SDS011;4757;59.334;18.034;2023-04-25T14:36:09;13.30;;;6.23;;
9436;SDS011;4757;59.334;18.034;2023-04-25T14:38:37;17.47;;;5.63;;
9436;SDS011;4757;59.334;18.034;2023-04-25T14:41:04;16.13;;;5.60;;
9436;SDS011;4757;59.334;18.034;2023-04-25T14:43:32;7.00;;;5.23;;
9436;SDS011;4757;59.334;18.034;2023-04-25T14:45:59;10.83;;;5.97;;
9436;SDS011;4757;59.334;18.034;2023-04-25T14:48:27;6.07;;;5.03;;
9436;SDS011;4757;59.334;18.034;2023-04-25T14:50:54;10.37;;;6.50;;
9436;SDS011;4757;59.334;18.034;2023-04-25T14:53:27;7.57;;;5.50;;
9436;SDS011;4757;59.334;18.034;2023-04-25T14:55:54;7.80;;;5.50;;
9436;SDS011;4757;59.334;18.034;2023-04-25T14:58:24;6.27;;;4.30;;
9436;SDS011;4757;59.334;18.034;2023-04-25T15:00:52;11.03;;;4.37;;
9436;SDS011;4757;59.334;18.034;2023-04-25T15:03:19;4.60;;;3.07;;
9436;SDS011;4757;59.334;18.034;2023-04-25T15:05:46;4.00;;;3.50;;
9436;SDS011;4757;59.334;18.034;2023-04-25T15:08:13;4.63;;;4.17;;
9436;SDS011;4757;59.334;18.034;2023-04-25T15:10:40;3.73;;;2.73;;
9436;SDS011;4757;59.334;18.034;2023-04-25T15:13:07;7.13;;;2.37;;
9436;SDS011;4757;59.334;18.034;2023-04-25T15:15:37;4.47;;;2.77;;
9436;SDS011;4757;59.334;18.034;2023-04-25T15:18:04;8.33;;;3.73;;
9436;SDS011;4757;59.334;18.034;2023-04-25T15:20:33;8.53;;;2.83;;
9436;SDS011;4757;59.334;18.034;2023-04-25T15:23:01;2.83;;;2.27;;
9436;SDS011;4757;59.334;18.034;2023-04-25T15:25:29;2.43;;;2.20;;
9436;SDS011;4757;59.334;18.034;2023-04-25T15:27:59;12.90;;;4.57;;
9436;SDS011;4757;59.334;18.034;2023-04-25T15:30:26;6.93;;;3.20;;
9436;SDS011;4757;59.334;18.034;2023-04-25T15:32:53;5.37;;;2.60;;
9436;SDS011;4757;59.334;18.034;2023-04-25T15:35:20;8.90;;;2.50;;
9436;SDS011;4757;59.334;18.034;2023-04-25T15:37:47;4.63;;;2.73;;
9436;SDS011;4757;59.334;18.034;2023-04-25T15:40:15;4.83;;;2.50;;
9436;SDS011;4757;59.334;18.034;2023-04-25T15:42:46;9.60;;;2.87;;
9436;SDS011;4757;59.334;18.034;2023-04-25T15:45:18;3.40;;;3.10;;
9436;SDS011;4757;59.334;18.034;2023-04-25T15:47:51;6.50;;;3.87;;
9436;SDS011;4757;59.334;18.034;2023-04-25T15:50:21;4.70;;;3.37;;
9436;SDS011;4757;59.334;18.034;2023-04-25T15:52:49;4.67;;;3.20;;
9436;SDS011;4757;59.334;18.034;2023-04-25T15:55:19;5.03;;;3.30;;
9436;SDS011;4757;59.334;18.034;2023-04-25T15:57:48;9.63;;;3.43;;
9436;SDS011;4757;59.334;18.034;2023-04-25T16:00:16;7.73;;;3.43;;
9436;SDS011;4757;59.334;18.034;2023-04-25T16:02:45;4.43;;;3.20;;
9436;SDS011;4757;59.334;18.034;2023-04-25T16:05:14;5.07;;;4.23;;
9436;SDS011;4757;59.334;18.034;2023-04-25T16:07:42;3.87;;;3.20;;
9436;SDS011;4757;59.334;18.034;2023-04-25T16:10:10;3.70;;;3.10;;
9436;SDS011;4757;59.334;18.034;2023-04-25T16:12:41;4.63;;;3.33;;
9436;SDS011;4757;59.334;18.034;2023-04-25T16:15:08;4.60;;;3.30;;
9436;SDS011;4757;59.334;18.034;2023-04-25T16:17:35;5.77;;;3.60;;
9436;SDS011;4757;59.334;18.034;2023-04-25T16:20:03;7.33;;;3.53;;
9436;SDS011;4757;59.334;18.034;2023-04-25T16:22:35;7.50;;;4.63;;
9436;SDS011;4757;59.334;18.034;2023-04-25T16:25:05;4.83;;;3.93;;
9436;SDS011;4757;59.334;18.034;2023-04-25T16:27:33;12.60;;;4.30;;
9436;SDS011;4757;59.334;18.034;2023-04-25T16:30:01;5.50;;;3.67;;
9436;SDS011;4757;59.334;18.034;2023-04-25T16:32:28;6.30;;;4.60;;
9436;SDS011;4757;59.334;18.034;2023-04-25T16:34:56;5.07;;;4.53;;
9436;SDS011;4757;59.334;18.034;2023-04-25T16:37:24;4.37;;;3.67;;
9436;SDS011;4757;59.334;18.034;2023-04-25T16:39:52;4.73;;;4.27;;
9436;SDS011;4757;59.334;18.034;2023-04-25T16:42:19;3.90;;;3.33;;
9436;SDS011;4757;59.334;18.034;2023-04-25T16:44:46;7.90;;;4.20;;
9436;SDS011;4757;59.334;18.034;2023-04-25T16:47:13;7.70;;;4.70;;
9436;SDS011;4757;59.334;18.034;2023-04-25T16:49:45;6.87;;;4.90;;
9436;SDS011;4757;59.334;18.034;2023-04-25T16:52:12;8.17;;;4.63;;
9436;SDS011;4757;59.334;18.034;2023-04-25T16:54:40;7.17;;;5.47;;
9436;SDS011;4757;59.334;18.034;2023-04-25T16:57:07;8.73;;;6.20;;
9436;SDS011;4757;59.334;18.034;2023-04-25T16:59:37;8.43;;;5.40;;
9436;SDS011;4757;59.334;18.034;2023-04-25T17:02:04;6.80;;;5.30;;
9436;SDS011;4757;59.334;18.034;2023-04-25T17:04:36;8.10;;;5.77;;
9436;SDS011;4757;59.334;18.034;2023-04-25T17:07:03;5.57;;;4.57;;
9436;SDS011;4757;59.334;18.034;2023-04-25T17:09:30;7.87;;;5.90;;
9436;SDS011;4757;59.334;18.034;2023-04-25T17:11:58;9.07;;;5.83;;
9436;SDS011;4757;59.334;18.034;2023-04-25T17:14:25;8.90;;;5.23;;
9436;SDS011;4757;59.334;18.034;2023-04-25T17:16:55;9.07;;;6.20;;
9436;SDS011;4757;59.334;18.034;2023-04-25T17:19:29;11.60;;;7.17;;
9436;SDS011;4757;59.334;18.034;2023-04-25T17:21:57;7.80;;;6.53;;
9436;SDS011;4757;59.334;18.034;2023-04-25T17:24:24;8.17;;;6.83;;
9436;SDS011;4757;59.334;18.034;2023-04-25T17:26:51;11.63;;;7.53;;
9436;SDS011;4757;59.334;18.034;2023-04-25T17:29:22;10.93;;;7.40;;
9436;SDS011;4757;59.334;18.034;2023-04-25T17:31:49;10.37;;;8.43;;
9436;SDS011;4757;59.334;18.034;2023-04-25T17:34:17;10.23;;;5.90;;
9436;SDS011;4757;59.334;18.034;2023-04-25T17:36:44;9.43;;;6.90;;
9436;SDS011;4757;59.334;18.034;2023-04-25T17:39:11;19.40;;;15.60;;
9436;SDS011;4757;59.334;18.034;2023-04-25T17:41:42;13.33;;;8.80;;
9436;SDS011;4757;59.334;18.034;2023-04-25T17:44:10;12.07;;;9.23;;
9436;SDS011;4757;59.334;18.034;2023-04-25T17:46:40;24.90;;;15.53;;
9436;SDS011;4757;59.334;18.034;2023-04-25T17:49:07;10.50;;;8.97;;
9436;SDS011;4757;59.334;18.034;2023-04-25T17:51:34;15.70;;;8.93;;
9436;SDS011;4757;59.334;18.034;2023-04-25T17:54:01;10.10;;;8.00;;